Kezdőlap
METAR-TAF:

METAR-TAF

Repülőterek :

Jacksonville Municipal Airport

Jacksonville, Illinois, Amerikai Egyesült Államok

földrajzi szélesség: 39-46-27N, földrajzi hosszúság: 090-14-19W, magasság: 190 m

Jelenlegi meteorológiai megfigyelések

A jelentés 28 perccel ezelõtt készült, 21:55 UTC
Nyugati szél 10 kt
Hőmérséklet 24°C
Páratartalom 44%
Légköri nyomás 1012 hPa
Látótávolság: 16.1 km
Szakadozott felhőzet 8000 lábon
Szakadozott felhőzet 12000 lábon

METAR: KIJX 272155Z AUTO 28010KT 10SM BKN080 BKN120 24/11 A2988 RMK AO2 T02430113

Idő: 17:23 (22:23 UTC)


TAF: hiányzik

Meteorológiai megfigyelések és előrejelzések több, mint 4000 repülőtéren (METAR és TAF jelentéseket).

A térképen piros és sárga pontok jelzik az elérhető meteorológiai állomásokat.

Mozgassa az egeret a pont fölött, hogy megjelenjen az állomás neve.

Azután kattintson az időjárási megfigyelések és előrejelzések megtekintéséhez.

A térkép megváltoztatása: kattintson a fekete keresztel jelölt zöld gombra ráközelítéshez, a vonallal jelölt zöld gombra távolításhoz, vagy a zöld nyilakra a szomszédos térképek eléréséhez.


METAR-TAF: